createdAt,value
2023-03-15T00:03:40.043Z,97524.78
2023-03-15T00:08:41.952Z,97521.69
2023-03-15T00:13:44.295Z,97530.00
2023-03-15T00:18:47.355Z,97544.88
2023-03-15T00:23:52.263Z,97546.28
2023-03-15T00:28:54.087Z,97560.38
2023-03-15T00:33:56.005Z,97553.09
2023-03-15T00:38:58.289Z,97550.81
2023-03-15T00:44:00.174Z,97560.41
2023-03-15T00:49:02.013Z,97567.97
2023-03-15T00:54:03.978Z,97564.47
2023-03-15T00:59:06.130Z,97575.53
2023-03-15T01:04:08.116Z,97578.41
2023-03-15T01:09:10.165Z,97586.38
2023-03-15T01:14:12.299Z,97592.47
2023-03-15T01:19:15.055Z,97606.94
2023-03-15T01:24:20.943Z,97604.38
2023-03-15T01:29:25.254Z,97607.91
2023-03-15T01:34:27.465Z,97612.09
2023-03-15T01:39:31.151Z,97614.00
2023-03-15T01:44:51.576Z,97617.50
2023-03-15T01:50:05.449Z,97609.13
2023-03-15T01:55:13.235Z,97607.78
2023-03-15T02:00:27.856Z,97609.69
2023-03-15T02:05:38.224Z,97609.84
2023-03-15T02:10:54.777Z,97614.31
2023-03-15T02:16:00.037Z,97614.72
2023-03-15T02:21:21.544Z,97618.25
2023-03-15T02:26:26.113Z,97612.44
2023-03-15T02:31:28.136Z,97623.13
2023-03-15T02:36:34.410Z,97630.03
2023-03-15T02:41:42.874Z,97639.47
2023-03-15T02:46:47.987Z,97646.66
2023-03-15T02:51:51.052Z,97639.75
2023-03-15T02:56:55.978Z,97648.56
2023-03-15T03:01:58.595Z,97646.13
2023-03-15T03:07:00.650Z,97658.69
2023-03-15T03:12:10.359Z,97667.63
2023-03-15T03:17:13.250Z,97680.59
2023-03-15T03:22:15.553Z,97690.34
2023-03-15T03:27:18.217Z,97698.44
2023-03-15T03:32:22.541Z,97709.94
2023-03-15T03:37:24.712Z,97706.81
2023-03-15T03:42:35.866Z,97713.84
2023-03-15T03:47:39.097Z,97720.59
2023-03-15T03:52:44.006Z,97721.41
2023-03-15T03:57:55.794Z,97734.66
2023-03-15T04:03:27.707Z,97735.72
2023-03-15T04:08:38.259Z,97738.44
2023-03-15T04:13:42.227Z,97743.69
2023-03-15T04:18:45.187Z,97754.09
2023-03-15T04:23:47.295Z,97763.69
2023-03-15T04:28:59.493Z,97781.66
2023-03-15T04:34:31.771Z,97788.00
2023-03-15T04:39:33.647Z,97796.91
2023-03-15T04:44:44.819Z,97797.84
2023-03-15T04:49:49.539Z,97808.38
2023-03-15T04:55:15.206Z,97814.56
2023-03-15T05:00:40.247Z,97816.72
2023-03-15T05:05:59.024Z,97824.81
2023-03-15T05:11:05.263Z,97840.44
2023-03-15T05:16:25.912Z,97842.47
2023-03-15T05:21:57.114Z,97854.72
2023-03-15T05:27:17.444Z,97848.78
2023-03-15T05:32:34.937Z,97865.00
2023-03-15T05:37:56.239Z,97870.13
2023-03-15T05:42:58.580Z,97877.81
2023-03-15T05:48:20.755Z,97895.66
2023-03-15T05:53:30.242Z,97892.03
2023-03-15T05:59:07.355Z,97912.28
2023-03-15T06:04:32.283Z,97925.81
2023-03-15T06:09:35.483Z,97928.13
2023-03-15T06:14:38.876Z,97933.69
2023-03-15T06:19:45.805Z,97938.31
2023-03-15T06:24:47.663Z,97947.50
2023-03-15T06:29:50.767Z,97948.75
2023-03-15T06:34:55.925Z,97951.06
2023-03-15T06:39:57.907Z,97961.06
2023-03-15T06:45:01.425Z,97964.31
2023-03-15T06:50:03.922Z,97972.69
2023-03-15T06:55:06.887Z,97982.72
2023-03-15T07:00:11.481Z,97974.63
2023-03-15T07:05:13.453Z,97981.94
2023-03-15T07:10:15.415Z,97990.34
2023-03-15T07:15:17.709Z,97990.63
2023-03-15T07:20:19.724Z,97993.63
2023-03-15T07:25:25.992Z,97984.47
2023-03-15T07:30:28.073Z,97981.25
2023-03-15T07:35:30.183Z,97995.19
2023-03-15T07:40:32.259Z,98001.88
2023-03-15T07:45:35.292Z,97991.34
2023-03-15T07:50:37.588Z,97995.97
2023-03-15T07:55:39.642Z,98005.19
2023-03-15T08:00:41.610Z,98005.16
2023-03-15T08:05:43.341Z,98013.03
2023-03-15T08:10:46.077Z,98011.16
2023-03-15T08:15:48.300Z,98019.56
2023-03-15T08:20:50.979Z,98019.56
2023-03-15T08:25:52.935Z,98018.06
2023-03-15T08:30:54.944Z,98030.22
2023-03-15T08:35:57.100Z,98042.03
2023-03-15T08:40:59.450Z,98045.69
2023-03-15T08:46:02.112Z,98044.47
2023-03-15T08:51:09.299Z,98052.44
2023-03-15T08:56:11.835Z,98054.88
2023-03-15T09:01:16.044Z,98058.69
2023-03-15T09:06:17.979Z,98078.16
2023-03-15T09:11:21.058Z,98094.78
2023-03-15T09:16:23.082Z,98093.00
2023-03-15T09:21:25.276Z,98090.84
2023-03-15T09:26:27.330Z,98093.81
2023-03-15T09:31:29.693Z,98103.88
2023-03-15T09:36:32.908Z,98094.56
2023-03-15T09:41:47.244Z,98090.66
2023-03-15T09:47:10.441Z,98099.31
2023-03-15T09:52:30.180Z,98105.16
2023-03-15T09:57:43.569Z,98106.78
2023-03-15T10:03:07.060Z,98114.38
2023-03-15T10:08:15.368Z,98119.63
2023-03-15T10:13:35.145Z,98118.69
2023-03-15T10:18:48.384Z,98123.56
2023-03-15T10:23:54.059Z,98124.91
2023-03-15T10:28:56.509Z,98130.19
2023-03-15T10:33:58.322Z,98136.28
2023-03-15T10:39:00.267Z,98137.09
2023-03-15T10:44:24.672Z,98137.22
2023-03-15T10:49:37.715Z,98141.69
2023-03-15T10:54:42.100Z,98148.84
2023-03-15T11:00:10.220Z,98142.91
2023-03-15T11:05:17.589Z,98160.13
2023-03-15T11:10:28.610Z,98153.88
2023-03-15T11:15:30.488Z,98159.31
2023-03-15T11:20:39.368Z,98159.00
2023-03-15T11:25:41.462Z,98155.88
2023-03-15T11:30:44.805Z,98161.03
2023-03-15T11:35:48.542Z,98161.28
2023-03-15T11:40:56.873Z,98163.19
2023-03-15T11:46:03.734Z,98159.28
2023-03-15T11:51:19.418Z,98159.13
2023-03-15T11:56:26.103Z,98158.44
2023-03-15T12:01:28.226Z,98157.75
2023-03-15T12:06:38.358Z,98153.31
2023-03-15T12:11:41.774Z,98159.56
2023-03-15T12:16:46.476Z,98159.44
2023-03-15T12:21:54.316Z,98150.66
2023-03-15T12:27:18.346Z,98152.44
2023-03-15T12:32:20.846Z,98152.31
2023-03-15T12:37:27.555Z,98152.06
2023-03-15T12:42:29.358Z,98154.50
2023-03-15T12:47:47.648Z,98158.13
2023-03-15T12:52:53.637Z,98156.63
2023-03-15T12:57:58.002Z,98158.53
2023-03-15T13:03:06.097Z,98165.56
2023-03-15T13:08:23.070Z,98172.63
2023-03-15T13:13:54.142Z,98173.84
2023-03-15T13:19:19.009Z,98167.47
2023-03-15T13:24:33.769Z,98168.56
2023-03-15T13:29:36.407Z,98171.25
2023-03-15T13:34:38.583Z,98169.91
2023-03-15T13:40:04.172Z,98164.72
2023-03-15T13:45:09.185Z,98179.09
2023-03-15T13:50:18.084Z,98181.81
2023-03-15T13:55:23.330Z,98175.19
2023-03-15T14:00:27.022Z,98180.59
2023-03-15T14:05:32.841Z,98186.97
2023-03-15T14:10:40.928Z,98185.06
2023-03-15T14:15:47.809Z,98189.00
2023-03-15T14:20:54.400Z,98189.44
2023-03-15T14:26:19.646Z,98200.41
2023-03-15T14:31:25.169Z,98206.78
2023-03-15T14:36:35.590Z,98194.34
2023-03-15T14:41:38.709Z,98202.91
2023-03-15T14:46:40.481Z,98209.00
2023-03-15T14:51:42.480Z,98201.69
2023-03-15T14:56:44.574Z,98211.31
2023-03-15T15:01:51.592Z,98202.78
2023-03-15T15:06:55.682Z,98211.31
2023-03-15T15:11:58.138Z,98216.34
2023-03-15T15:17:00.084Z,98208.75
2023-03-15T15:22:02.084Z,98216.47
2023-03-15T15:27:04.026Z,98223.91
2023-03-15T15:32:06.155Z,98224.28
2023-03-15T15:37:11.757Z,98226.31
2023-03-15T15:42:13.647Z,98230.66
2023-03-15T15:47:15.459Z,98242.84
2023-03-15T15:52:17.339Z,98242.56
2023-03-15T15:57:23.484Z,98248.78
2023-03-15T16:02:26.026Z,98250.81
2023-03-15T16:07:28.277Z,98256.09
2023-03-15T16:12:33.259Z,98260.56
2023-03-15T16:17:35.185Z,98271.25
2023-03-15T16:22:40.267Z,98280.31
2023-03-15T16:27:44.964Z,98287.72
2023-03-15T16:32:47.087Z,98284.72
2023-03-15T16:37:58.139Z,98290.25
2023-03-15T16:43:00.426Z,98304.47
2023-03-15T16:48:02.271Z,98314.19
2023-03-15T16:53:08.067Z,98318.91
2023-03-15T16:58:18.210Z,98329.75
2023-03-15T17:03:21.374Z,98337.84
2023-03-15T17:08:23.915Z,98348.50
2023-03-15T17:13:28.938Z,98354.16
2023-03-15T17:18:31.011Z,98363.06
2023-03-15T17:23:33.048Z,98367.63
2023-03-15T17:28:34.873Z,98380.03
2023-03-15T17:33:36.705Z,98391.50
2023-03-15T17:38:42.397Z,98395.16
2023-03-15T17:43:44.441Z,98405.69
2023-03-15T17:48:47.140Z,98401.97
2023-03-15T17:53:50.007Z,98421.97
2023-03-15T17:58:52.696Z,98427.22
2023-03-15T18:03:55.867Z,98439.38
2023-03-15T18:08:57.767Z,98448.25
2023-03-15T18:14:00.164Z,98452.81
2023-03-15T18:19:02.191Z,98460.09
2023-03-15T18:24:04.169Z,98474.09
2023-03-15T18:29:06.013Z,98475.28
2023-03-15T18:34:07.940Z,98469.56
2023-03-15T18:39:09.971Z,98475.06
2023-03-15T18:44:11.875Z,98477.75
2023-03-15T18:49:13.814Z,98480.53
2023-03-15T18:54:15.598Z,98487.78
2023-03-15T18:59:20.798Z,98494.31
2023-03-15T19:04:23.126Z,98498.41
2023-03-15T19:09:25.067Z,98495.72
2023-03-15T19:14:26.890Z,98509.13
2023-03-15T19:19:29.373Z,98514.03
2023-03-15T19:24:33.223Z,98518.91
2023-03-15T19:29:35.187Z,98519.38
2023-03-15T19:34:37.097Z,98529.25
2023-03-15T19:39:38.896Z,98531.34
2023-03-15T19:44:40.948Z,98546.16
2023-03-15T19:49:42.758Z,98543.81
2023-03-15T19:54:44.751Z,98550.09
2023-03-15T19:59:46.706Z,98552.06
2023-03-15T20:04:48.474Z,98565.91
2023-03-15T20:09:50.648Z,98574.75
2023-03-15T20:14:52.459Z,98572.31
2023-03-15T20:19:54.916Z,98582.78
2023-03-15T20:24:56.717Z,98579.50
2023-03-15T20:29:58.675Z,98577.06
2023-03-15T20:35:02.330Z,98590.00
2023-03-15T20:40:08.978Z,98591.63
2023-03-15T20:45:12.694Z,98602.09
2023-03-15T20:50:14.541Z,98617.59
2023-03-15T20:55:16.547Z,98621.91
2023-03-15T21:00:20.120Z,98629.72
2023-03-15T21:05:22.769Z,98633.41
2023-03-15T21:10:25.562Z,98637.72
2023-03-15T21:15:27.470Z,98642.16
2023-03-15T21:20:29.455Z,98648.19
2023-03-15T21:25:32.711Z,98644.81
2023-03-15T21:30:34.757Z,98648.19
2023-03-15T21:35:36.700Z,98650.97
2023-03-15T21:40:38.560Z,98665.75
2023-03-15T21:45:42.083Z,98663.50
2023-03-15T21:50:44.152Z,98667.22
2023-03-15T21:55:46.337Z,98667.41
2023-03-15T22:00:48.279Z,98669.38
2023-03-15T22:05:50.206Z,98667.13
2023-03-15T22:10:57.031Z,98675.84
2023-03-15T22:15:59.197Z,98676.97
2023-03-15T22:21:01.134Z,98679.63
2023-03-15T22:26:02.942Z,98688.34
2023-03-15T22:31:04.983Z,98684.25
2023-03-15T22:36:07.221Z,98698.19
2023-03-15T22:41:11.026Z,98694.19
2023-03-15T22:46:13.257Z,98701.88
2023-03-15T22:51:16.596Z,98704.56
2023-03-15T22:56:18.494Z,98705.38
2023-03-15T23:01:21.233Z,98710.28
2023-03-15T23:06:23.006Z,98712.84
2023-03-15T23:11:24.753Z,98720.75
2023-03-15T23:16:26.562Z,98718.19
2023-03-15T23:21:28.414Z,98713.97
2023-03-15T23:26:37.575Z,98719.19
2023-03-15T23:31:42.145Z,98719.31
2023-03-15T23:36:45.324Z,98715.81
2023-03-15T23:41:48.106Z,98725.25
2023-03-15T23:46:50.002Z,98725.44
2023-03-15T23:51:54.454Z,98734.88
2023-03-15T23:56:56.188Z,98736.72
